Time;durP1;ratioP1;P1;durP2;ratioP2;P2;SDS_P1;SDS_P2;PMS_P1;PMS_P2;Temp;Humidity;BMP_temperature;BMP_pressure;BME280_temperature;BME280_humidity;BME280_pressure;Samples;Min_cycle;Max_cycle;Signal;HPM_P1;HPM_P2
2023/03/09 00:02:04;;;;;;;26.50;21.10;;;;;;;1.38;100.00;96041.19;15290810;19;20011;-49
2023/03/09 00:07:31;;;;;;;25.10;20.38;;;;;;;1.34;100.00;96052.28;15289851;19;21242;-50
2023/03/09 00:12:54;;;;;;;24.65;20.10;;;;;;;1.32;100.00;96054.25;15292691;19;20049;-48
2023/03/09 00:18:23;;;;;;;24.70;19.77;;;;;;;1.35;100.00;96054.75;15295167;19;20038;-52
2023/03/09 00:23:47;;;;;;;26.55;21.15;;;;;;;1.34;100.00;96049.63;15293117;19;20339;-49
2023/03/09 00:29:14;;;;;;;25.75;21.13;;;;;;;1.30;100.00;96032.38;15291777;19;20078;-48
2023/03/09 00:34:41;;;;;;;29.95;21.95;;;;;;;1.22;100.00;96023.41;15289284;19;20031;-48
2023/03/09 00:40:09;;;;;;;30.60;22.05;;;;;;;1.17;100.00;96003.69;15286843;19;20041;-51
2023/03/09 00:45:33;;;;;;;31.83;23.30;;;;;;;1.13;100.00;96000.50;15288902;19;20432;-49
2023/03/09 00:51:01;;;;;;;35.65;23.70;;;;;;;1.06;100.00;95986.25;15291490;19;20462;-48
2023/03/09 00:56:29;;;;;;;37.72;24.48;;;;;;;1.05;100.00;95997.84;15289751;19;20041;-49
2023/03/09 01:01:54;;;;;;;43.45;25.55;;;;;;;1.02;100.00;95976.94;15285349;19;20374;-48
2023/03/09 01:07:23;;;;;;;59.67;26.20;;;;;;;1.00;100.00;95952.44;15290054;19;20518;-47
2023/03/09 01:12:48;;;;;;;52.63;27.17;;;;;;;0.94;100.00;95942.47;15281095;19;20496;-48
2023/03/09 01:18:13;;;;;;;54.35;26.88;;;;;;;0.92;100.00;95955.88;15290063;19;20022;-53
2023/03/09 01:23:42;;;;;;;49.22;29.40;;;;;;;0.92;100.00;95940.81;15287768;19;20078;-52
2023/03/09 01:29:06;;;;;;;48.42;28.10;;;;;;;0.90;100.00;95920.75;15290667;19;20074;-53
2023/03/09 01:34:31;;;;;;;61.28;29.52;;;;;;;0.92;100.00;95943.44;15286313;19;20965;-52
2023/03/09 01:39:59;;;;;;;52.33;28.63;;;;;;;0.95;100.00;95933.53;15288684;19;20018;-50
2023/03/09 01:45:59;;;;;;;49.38;28.50;;;;;;;1.01;100.00;95938.16;15282236;19;20042;-48
2023/03/09 01:51:29;;;;;;;41.03;27.45;;;;;;;0.99;100.00;95935.69;15286333;19;20047;-52
2023/03/09 01:57:02;;;;;;;37.55;25.73;;;;;;;1.00;100.00;95917.97;15287539;19;20014;-48
2023/03/09 02:02:31;;;;;;;39.78;25.40;;;;;;;1.01;100.00;95911.66;15282537;19;20030;-54
2023/03/09 02:08:00;;;;;;;36.35;24.90;;;;;;;1.00;100.00;95917.97;15285693;19;20010;-51
2023/03/09 02:13:32;;;;;;;35.55;23.98;;;;;;;1.03;100.00;95934.38;15283753;19;20018;-50
2023/03/09 02:18:58;;;;;;;25.33;18.03;;;;;;;1.12;100.00;95945.00;15280849;19;20010;-51
2023/03/09 02:24:29;;;;;;;19.83;14.05;;;;;;;1.05;100.00;95935.03;15284593;19;20294;-50
2023/03/09 02:29:58;;;;;;;17.15;11.32;;;;;;;1.02;100.00;95929.22;15287701;19;20374;-47
2023/03/09 02:35:22;;;;;;;15.63;10.43;;;;;;;0.97;100.00;95908.50;15281813;19;20015;-49
2023/03/09 02:40:47;;;;;;;12.82;8.57;;;;;;;0.92;100.00;95893.09;15282228;19;20022;-50
2023/03/09 02:46:16;;;;;;;11.13;7.72;;;;;;;0.89;100.00;95885.47;15283528;19;20011;-52
2023/03/09 02:51:42;;;;;;;9.83;6.90;;;;;;;0.88;100.00;95897.06;15278586;19;20074;-49
2023/03/09 02:57:07;;;;;;;11.32;7.72;;;;;;;0.87;100.00;95900.72;15286090;19;20010;-53
2023/03/09 03:02:36;;;;;;;10.77;7.38;;;;;;;0.87;100.00;95897.22;15275175;19;20048;-49
2023/03/09 03:08:01;;;;;;;12.25;7.55;;;;;;;0.87;100.00;95878.66;15283278;19;20010;-50
2023/03/09 03:13:27;;;;;;;12.65;8.57;;;;;;;0.87;100.00;95884.81;15279054;19;20625;-49
2023/03/09 03:18:56;;;;;;;12.45;8.27;;;;;;;0.85;100.00;95878.84;15292261;19;20053;-49
2023/03/09 03:24:23;;;;;;;13.48;8.73;;;;;;;0.83;100.00;95891.44;15292782;19;20082;-48
2023/03/09 03:29:54;;;;;;;15.98;9.73;;;;;;;0.85;100.00;95893.91;15297247;19;20415;-46
2023/03/09 03:35:23;;;;;;;16.80;10.48;;;;;;;0.81;100.00;95897.88;15293851;19;20021;-51
2023/03/09 03:40:48;;;;;;;17.55;9.95;;;;;;;0.81;100.00;95897.88;15295893;19;20019;-48
2023/03/09 03:46:13;;;;;;;16.85;9.70;;;;;;;0.81;100.00;95906.66;15295655;19;20014;-49
2023/03/09 03:51:42;;;;;;;16.02;9.98;;;;;;;0.82;100.00;95913.63;15293532;19;20605;-49
2023/03/09 03:57:08;;;;;;;18.13;10.50;;;;;;;0.82;100.00;95907.50;15285869;19;20014;-50
2023/03/09 04:02:35;;;;;;;19.25;11.32;;;;;;;0.82;100.00;95913.63;15290554;19;20015;-49
2023/03/09 04:08:07;;;;;;;18.02;10.50;;;;;;;0.83;100.00;95919.72;15295389;19;20018;-51
2023/03/09 04:13:36;;;;;;;17.35;10.63;;;;;;;0.81;100.00;95922.56;15310139;19;20010;-51
2023/03/09 04:19:00;;;;;;;18.33;11.50;;;;;;;0.82;100.00;95924.22;15297872;19;20118;-51
2023/03/09 04:24:29;;;;;;;20.70;12.10;;;;;;;0.83;100.00;95925.88;15291930;19;20010;-53
2023/03/09 04:29:53;;;;;;;21.52;12.65;;;;;;;0.83;100.00;95941.78;15292535;19;20023;-48
2023/03/09 04:35:20;;;;;;;18.05;11.55;;;;;;;0.85;100.00;95952.22;15288106;19;20033;-49
2023/03/09 04:40:50;;;;;;;19.33;11.85;;;;;;;0.86;100.00;95970.63;15287234;19;20527;-50
2023/03/09 04:46:15;;;;;;;17.00;10.48;;;;;;;0.81;100.00;95978.22;15291310;19;20089;-50
2023/03/09 04:51:43;;;;;;;102.97;13.90;;;;;;;0.71;100.00;95986.28;15289083;19;20529;-49
2023/03/09 04:57:11;;;;;;;538.45;22.63;;;;;;;0.65;100.00;96002.00;15279941;19;20059;-50
2023/03/09 05:02:37;;;;;;;16.40;10.02;;;;;;;0.60;100.00;96026.31;15284969;19;20471;-48
2023/03/09 05:08:05;;;;;;;12.32;7.72;;;;;;;0.62;100.00;96042.88;15289515;19;20356;-50
2023/03/09 05:13:33;;;;;;;8.00;5.72;;;;;;;0.58;100.00;96045.03;15287386;19;20011;-51
2023/03/09 05:19:02;;;;;;;8.48;6.10;;;;;;;0.58;100.00;96039.72;15292021;19;20074;-48
2023/03/09 05:24:26;;;;;;;8.93;6.07;;;;;;;0.56;100.00;96057.59;15288011;19;20039;-51
2023/03/09 05:29:54;;;;;;;9.10;6.15;;;;;;;0.60;100.00;96064.25;15283896;19;20022;-50
2023/03/09 05:35:22;;;;;;;10.35;6.53;;;;;;;0.52;100.00;96088.06;15285099;19;20395;-50
2023/03/09 05:40:49;;;;;;;12.77;7.60;;;;;;;0.44;100.00;96106.53;15284669;19;20359;-50
2023/03/09 05:46:18;;;;;;;13.23;7.75;;;;;;;0.35;100.00;96124.19;15286080;19;20019;-50
2023/03/09 05:51:43;;;;;;;34.75;9.70;;;;;;;0.23;100.00;96171.25;15284637;19;20035;-51
2023/03/09 05:57:07;;;;;;;13.45;8.40;;;;;;;0.18;100.00;96192.03;15283193;19;20025;-51
2023/03/09 06:02:38;;;;;;;9.45;6.60;;;;;;;0.06;100.00;96199.38;15280743;19;20039;-52
2023/03/09 06:08:08;;;;;;;8.13;5.70;;;;;;;0.07;100.00;96197.56;15286043;19;20873;-50
2023/03/09 06:13:37;;;;;;;7.78;5.75;;;;;;;0.08;100.00;96212.47;15285325;19;20113;-49
2023/03/09 06:19:05;;;;;;;7.25;5.45;;;;;;;0.04;100.00;96237.59;15288136;19;20034;-52
2023/03/09 06:24:31;;;;;;;11.85;7.15;;;;;;;0.00;100.00;96260.88;15283420;19;20033;-47
2023/03/09 06:29:58;;;;;;;15.82;8.07;;;;;;;0.01;100.00;96283.69;15282425;19;20027;-50
2023/03/09 06:35:27;;;;;;;18.90;10.10;;;;;;;0.02;100.00;96308.38;15276373;19;20021;-50
2023/03/09 06:40:55;;;;;;;15.40;9.15;;;;;;;-0.03;100.00;96322.88;15282377;19;20034;-49
2023/03/09 06:46:22;;;;;;;17.48;11.00;;;;;;;-0.07;100.00;96337.41;15284298;19;20021;-52
2023/03/09 06:51:49;;;;;;;15.25;10.10;;;;;;;-0.07;100.00;96344.50;15283282;19;20086;-50
2023/03/09 06:57:14;;;;;;;17.58;11.27;;;;;;;-0.05;100.00;96363.72;15295135;19;20351;-49
2023/03/09 07:02:40;;;;;;;30.42;14.95;;;;;;;-0.02;100.00;96377.47;15293449;19;20019;-52
2023/03/09 07:08:07;;;;;;;31.05;14.50;;;;;;;0.01;100.00;96391.41;15295071;19;20342;-52
2023/03/09 07:13:32;;;;;;;71.82;15.80;;;;;;;0.08;100.00;96403.06;15298241;19;20010;-51
2023/03/09 07:18:57;;;;;;;43.15;12.38;;;;;;;0.10;100.00;96411.72;15301256;19;20085;-51
2023/03/09 07:24:24;;;;;;;17.42;10.75;;;;;;;0.18;100.00;96424.22;15297473;19;20086;-50
2023/03/09 07:29:49;;;;;;;17.58;9.88;;;;;;;0.23;100.00;96445.81;15297697;19;20022;-52
2023/03/09 07:35:13;;;;;;;14.82;9.73;;;;;;;0.36;100.00;96471.97;15294924;19;20029;-55
2023/03/09 07:40:41;;;;;;;11.05;8.10;;;;;;;0.42;100.00;96481.97;15292781;19;20074;-53
2023/03/09 07:46:08;;;;;;;11.00;7.80;;;;;;;0.46;100.00;96483.34;15295949;19;20499;-54
2023/03/09 07:51:33;;;;;;;10.00;7.43;;;;;;;0.53;100.00;96481.78;15294778;19;20010;-50
2023/03/09 07:57:00;;;;;;;10.70;8.65;;;;;;;0.58;100.00;96487.47;15285029;19;20025;-55
2023/03/09 08:02:25;;;;;;;10.85;8.60;;;;;;;0.68;100.00;96491.91;15290920;19;20015;-52
2023/03/09 08:07:49;;;;;;;8.85;7.80;;;;;;;0.76;100.00;96505.28;15294824;19;20520;-50
2023/03/09 08:13:19;;;;;;;8.82;7.90;;;;;;;0.80;100.00;96509.28;15289149;19;20515;-50
2023/03/09 08:18:44;;;;;;;8.95;7.93;;;;;;;0.89;100.00;96519.00;15294555;19;20039;-50
2023/03/09 08:24:09;;;;;;;7.65;6.57;;;;;;;0.98;100.00;96525.22;15293182;19;20522;-50
2023/03/09 08:29:36;;;;;;;6.30;5.60;;;;;;;1.03;100.00;96535.38;15290944;19;20015;-51
2023/03/09 08:35:04;;;;;;;6.95;6.20;;;;;;;1.10;100.00;96540.94;15289129;19;20014;-50
2023/03/09 08:40:29;;;;;;;6.20;5.50;;;;;;;1.09;100.00;96542.75;15288518;19;20359;-50
2023/03/09 08:45:57;;;;;;;7.53;6.40;;;;;;;1.14;100.00;96542.31;15287933;19;20014;-49
2023/03/09 08:51:22;;;;;;;6.30;5.70;;;;;;;1.23;100.00;96549.38;15291342;19;20553;-50
2023/03/09 08:56:47;;;;;;;6.93;5.90;;;;;;;1.28;100.00;96554.22;15288099;19;20014;-50
2023/03/09 09:02:15;;;;;;;6.45;5.85;;;;;;;1.35;100.00;96563.28;15286094;19;20371;-53
2023/03/09 09:07:40;;;;;;;6.20;5.60;;;;;;;1.47;100.00;96574.50;15289840;19;20031;-50
2023/03/09 09:13:05;;;;;;;6.50;5.90;;;;;;;1.57;100.00;96590.38;15290579;19;20029;-50
2023/03/09 09:18:33;;;;;;;6.03;5.43;;;;;;;1.64;100.00;96591.44;15282836;19;20021;-50
2023/03/09 09:24:00;;;;;;;6.03;5.53;;;;;;;1.74;100.00;96600.16;15289588;19;20090;-49
2023/03/09 09:29:26;;;;;;;7.30;6.60;;;;;;;1.83;100.00;96604.56;15287094;19;20019;-53
2023/03/09 09:34:54;;;;;;;6.90;6.30;;;;;;;1.97;100.00;96605.84;15284489;19;20500;-51
2023/03/09 09:40:22;;;;;;;7.43;6.68;;;;;;;2.11;100.00;96609.78;15286242;19;20085;-51
2023/03/09 09:45:48;;;;;;;4.70;4.30;;;;;;;2.26;100.00;96623.34;15288145;19;20019;-53
2023/03/09 09:51:27;;;;;;;4.10;3.80;;;;;;;2.37;100.00;96626.75;15281360;19;20057;-51
2023/03/09 09:56:55;;;;;;;4.00;3.70;;;;;;;2.53;100.00;96628.72;15285434;19;20035;-55
2023/03/09 10:02:46;;;;;;;3.88;3.50;;;;;;;2.69;100.00;96636.81;15282166;19;20091;-54
2023/03/09 10:08:31;;;;;;;4.47;4.07;;;;;;;2.84;100.00;96639.72;15286079;19;20015;-53
2023/03/09 10:14:02;;;;;;;3.65;3.35;;;;;;;3.02;100.00;96631.69;15285598;19;20018;-51
2023/03/09 10:19:34;;;;;;;3.83;3.50;;;;;;;3.27;100.00;96647.78;15288149;19;20053;-50
2023/03/09 10:25:01;;;;;;;3.70;3.38;;;;;;;3.53;100.00;96654.88;15286606;19;20059;-52
2023/03/09 10:30:30;;;;;;;3.63;3.33;;;;;;;3.74;100.00;96654.47;15298192;19;20104;-49
2023/03/09 10:36:02;;;;;;;3.90;3.60;;;;;;;3.97;100.00;96656.50;15299454;19;20090;-51
2023/03/09 10:41:30;;;;;;;3.33;3.10;;;;;;;4.12;100.00;96657.50;15296731;19;20028;-54
2023/03/09 10:47:02;;;;;;;3.35;3.10;;;;;;;4.35;100.00;96659.53;15302276;19;20029;-55
2023/03/09 10:52:28;;;;;;;3.00;2.80;;;;;;;4.55;100.00;96667.22;15293217;19;20007;-54
2023/03/09 10:58:02;;;;;;;3.50;3.20;;;;;;;4.70;100.00;96668.25;15295622;19;20097;-51
2023/03/09 11:03:30;;;;;;;3.20;3.00;;;;;;;4.82;100.00;96678.56;15298184;19;20018;-49
2023/03/09 11:09:02;;;;;;;3.78;3.17;;;;;;;4.85;100.00;96675.53;15299798;19;20017;-52
2023/03/09 11:14:31;;;;;;;3.90;3.60;;;;;;;4.98;100.00;96656.38;15298462;19;20026;-50
2023/03/09 11:19:56;;;;;;;3.35;3.05;;;;;;;5.09;100.00;96650.66;15289610;19;20029;-52
2023/03/09 11:25:39;;;;;;;4.75;3.55;;;;;;;5.28;100.00;96659.28;15283613;19;20023;-51
2023/03/09 11:31:07;;;;;;;3.90;3.60;;;;;;;5.44;100.00;96661.06;15290110;19;20029;-49
2023/03/09 11:36:36;;;;;;;4.15;3.85;;;;;;;5.55;100.00;96669.56;15294345;19;20041;-52
2023/03/09 11:42:03;;;;;;;4.68;3.60;;;;;;;5.61;100.00;96672.53;15294137;19;20010;-49
2023/03/09 11:47:35;;;;;;;4.40;4.00;;;;;;;5.61;100.00;96656.50;15297596;19;20014;-49
2023/03/09 11:53:03;;;;;;;3.72;3.42;;;;;;;5.69;100.00;96651.13;15296514;19;20022;-50
2023/03/09 11:58:32;;;;;;;4.40;3.80;;;;;;;5.81;100.00;96665.78;15287535;19;20324;-53
2023/03/09 12:04:07;;;;;;;3.10;2.80;;;;;;;5.94;100.00;96657.19;15291082;19;20086;-49
2023/03/09 12:09:43;;;;;;;3.65;3.30;;;;;;;6.15;100.00;96663.75;15295735;19;20337;-49
2023/03/09 12:15:14;;;;;;;5.20;3.40;;;;;;;6.30;100.00;96669.16;15292895;19;20014;-47
2023/03/09 12:20:44;;;;;;;3.45;3.15;;;;;;;6.41;100.00;96684.81;15294129;19;20038;-52
2023/03/09 12:26:08;;;;;;;3.78;3.47;;;;;;;6.59;100.00;96691.72;15294039;19;20015;-50
2023/03/09 12:31:41;;;;;;;4.30;3.90;;;;;;;6.62;100.00;96694.03;15286353;19;20073;-51
2023/03/09 12:37:47;;;;;;;3.78;3.47;;;;;;;6.66;100.00;96673.09;15293204;19;20018;-50
2023/03/09 12:43:59;;;;;;;3.47;3.17;;;;;;;6.71;100.00;96668.88;15293268;19;20090;-51
2023/03/09 12:49:29;;;;;;;3.10;2.90;;;;;;;6.66;100.00;96671.25;15289855;19;20018;-50
2023/03/09 12:55:04;;;;;;;2.97;2.77;;;;;;;6.72;100.00;96654.50;15290997;19;20106;-49
2023/03/09 13:00:32;;;;;;;3.70;3.10;;;;;;;6.73;100.00;96658.84;15293127;19;20011;-49
2023/03/09 13:06:01;;;;;;;3.50;3.20;;;;;;;6.79;100.00;96660.78;15289140;19;20006;-53
2023/03/09 13:11:39;;;;;;;3.53;3.22;;;;;;;6.90;100.00;96656.84;15288043;19;20015;-53
2023/03/09 13:17:06;;;;;;;3.60;3.30;;;;;;;7.03;100.00;96672.25;15290168;19;20020;-52
2023/03/09 13:22:44;;;;;;;3.40;3.10;;;;;;;7.04;100.00;96695.34;15285751;19;20018;-53
2023/03/09 13:28:34;;;;;;;3.88;3.58;;;;;;;7.06;100.00;96701.38;15291131;19;20024;-54
2023/03/09 13:33:59;;;;;;;2.80;2.60;;;;;;;7.22;100.00;96719.13;15283065;19;20527;-52
2023/03/09 13:39:29;;;;;;;2.22;1.83;;;;;;;7.46;100.00;96729.78;15289494;19;20074;-53
2023/03/09 13:44:54;;;;;;;1.48;1.30;;;;;;;7.57;100.00;96710.56;15289363;19;20563;-50
2023/03/09 13:50:27;;;;;;;1.67;1.58;;;;;;;7.70;100.00;96697.31;15288896;19;20102;-53
2023/03/09 13:56:03;;;;;;;1.50;1.40;;;;;;;7.77;100.00;96677.84;15288198;19;20010;-50
2023/03/09 14:01:30;;;;;;;1.35;1.25;;;;;;;7.80;100.00;96682.84;15284245;19;20023;-51
2023/03/09 14:06:57;;;;;;;1.95;1.20;;;;;;;7.74;100.00;96694.28;15285190;19;20522;-49
2023/03/09 14:12:40;;;;;;;2.33;1.60;;;;;;;7.68;100.00;96699.38;15286102;19;20021;-53
2023/03/09 14:18:06;;;;;;;1.60;1.50;;;;;;;7.59;100.00;96711.19;15286526;19;20085;-53
2023/03/09 14:23:45;;;;;;;2.60;1.90;;;;;;;7.55;100.00;96734.03;15285324;19;20049;-54
2023/03/09 14:29:25;;;;;;;2.00;1.80;;;;;;;7.50;100.00;96745.31;15287575;19;20494;-50
2023/03/09 14:34:56;;;;;;;2.35;2.10;;;;;;;7.48;100.00;96747.34;15283516;19;20015;-51
2023/03/09 14:40:27;;;;;;;2.10;2.00;;;;;;;7.36;100.00;96746.94;15282443;19;20022;-53
2023/03/09 14:45:55;;;;;;;2.50;2.30;;;;;;;7.37;100.00;96739.75;15286953;19;20363;-51
2023/03/09 14:51:23;;;;;;;2.53;2.33;;;;;;;7.38;100.00;96736.06;15284556;19;20011;-52
2023/03/09 14:56:49;;;;;;;1.95;1.80;;;;;;;7.47;100.00;96732.28;15282241;19;20070;-52
2023/03/09 15:02:17;;;;;;;2.60;2.40;;;;;;;7.40;100.00;96742.06;15281638;19;20082;-53
2023/03/09 15:07:41;;;;;;;2.45;2.25;;;;;;;7.32;100.00;96732.25;15288162;19;20087;-52
2023/03/09 15:13:06;;;;;;;2.50;2.30;;;;;;;7.32;100.00;96729.59;15285685;19;20077;-51
2023/03/09 15:18:33;;;;;;;4.18;2.47;;;;;;;7.32;100.00;96729.59;15299128;19;20021;-52
2023/03/09 15:23:58;;;;;;;2.65;2.45;;;;;;;7.32;100.00;96723.38;15301380;19;20769;-51
2023/03/09 15:29:23;;;;;;;2.30;2.10;;;;;;;7.34;100.00;96727.56;15298958;19;20018;-50
2023/03/09 15:34:50;;;;;;;2.25;1.70;;;;;;;7.38;100.00;96710.09;15294251;19;20023;-48
2023/03/09 15:40:17;;;;;;;2.45;2.10;;;;;;;7.44;100.00;96699.66;15297734;19;20020;-49
2023/03/09 15:45:43;;;;;;;2.15;1.80;;;;;;;7.45;100.00;96682.56;15295438;19;20070;-49
2023/03/09 15:51:13;;;;;;;1.80;1.70;;;;;;;7.43;100.00;96682.75;15298521;19;20073;-53
2023/03/09 15:56:39;;;;;;;2.10;1.90;;;;;;;7.40;100.00;96667.88;15300430;19;20015;-49
2023/03/09 16:02:03;;;;;;;2.10;1.90;;;;;;;7.37;100.00;96662.88;15292629;19;20037;-51
2023/03/09 16:07:30;;;;;;;2.20;2.00;;;;;;;7.33;100.00;96666.13;15299416;19;20011;-51
2023/03/09 16:12:56;;;;;;;2.33;2.13;;;;;;;7.30;100.00;96661.97;15297603;19;20019;-51
2023/03/09 16:18:21;;;;;;;2.47;2.28;;;;;;;7.27;100.00;96675.72;15292827;19;20361;-51
2023/03/09 16:23:49;;;;;;;2.67;2.40;;;;;;;7.26;100.00;96674.03;15299426;19;20085;-49
2023/03/09 16:29:15;;;;;;;2.63;2.42;;;;;;;7.20;100.00;96686.31;15296854;19;20022;-49
2023/03/09 16:34:46;;;;;;;3.47;2.75;;;;;;;7.16;100.00;96703.78;15292657;19;20479;-50
2023/03/09 16:40:15;;;;;;;3.55;3.03;;;;;;;7.12;100.00;96717.69;15295770;19;20013;-49
2023/03/09 16:45:40;;;;;;;3.42;3.13;;;;;;;7.09;100.00;96726.94;15294949;19;20339;-50
2023/03/09 16:51:05;;;;;;;5.05;3.92;;;;;;;7.04;100.00;96719.44;15289214;19;20418;-52
2023/03/09 16:56:33;;;;;;;4.60;4.13;;;;;;;6.99;100.00;96723.69;15288218;19;20021;-50
2023/03/09 17:02:01;;;;;;;5.13;4.15;;;;;;;7.01;100.00;96711.78;15286485;19;20014;-49
2023/03/09 17:07:28;;;;;;;5.57;4.30;;;;;;;6.99;100.00;96711.16;15291327;19;20530;-52
2023/03/09 17:12:56;;;;;;;5.57;4.97;;;;;;;6.98;100.00;96706.81;15293394;19;20013;-54
2023/03/09 17:18:20;;;;;;;5.55;5.05;;;;;;;6.97;100.00;96698.94;15291711;19;20082;-49
2023/03/09 17:23:45;;;;;;;5.32;4.82;;;;;;;6.96;100.00;96708.81;15287753;19;20019;-54
2023/03/09 17:29:13;;;;;;;5.78;5.13;;;;;;;6.94;100.00;96708.97;15303588;19;20031;-53
2023/03/09 17:34:47;;;;;;;7.22;5.72;;;;;;;6.93;100.00;96714.53;15329085;19;20068;-52
2023/03/09 17:40:19;;;;;;;7.50;4.38;;;;;;;7.01;100.00;96727.03;15313395;19;20050;-53
2023/03/09 17:45:41;;;;;;;;;;;;;;;7.05;100.00;96734.50;15318832;19;20041;-53
2023/03/09 17:51:15;;;;;;;4.82;3.83;;;;;;;7.15;100.00;96738.78;15318901;19;20575;-51
2023/03/09 17:56:40;;;;;;;5.25;3.13;;;;;;;7.14;100.00;96743.31;15312369;19;20007;-53
2023/03/09 18:02:13;;;;;;;3.65;2.38;;;;;;;7.18;100.00;96749.13;15283424;19;20268;-49
2023/03/09 18:07:37;;;;;;;3.35;2.38;;;;;;;7.19;100.00;96756.16;15286966;19;20471;-50
2023/03/09 18:13:05;;;;;;;3.45;2.17;;;;;;;7.23;100.00;96771.66;15284217;19;20010;-53
2023/03/09 18:18:33;;;;;;;3.58;2.10;;;;;;;7.26;100.00;96762.44;15284428;19;20027;-50
2023/03/09 18:23:59;;;;;;;3.70;2.33;;;;;;;7.25;100.00;96766.13;15279511;19;20357;-50
2023/03/09 18:29:24;;;;;;;6.03;2.60;;;;;;;7.25;100.00;96764.28;15279428;19;20373;-49
2023/03/09 18:34:58;;;;;;;3.92;2.22;;;;;;;7.29;100.00;96758.59;15275748;19;20467;-53
2023/03/09 18:40:23;;;;;;;3.58;1.88;;;;;;;7.29;100.00;96759.41;15278512;19;20019;-49
2023/03/09 18:45:50;;;;;;;5.72;1.90;;;;;;;7.35;100.00;96763.19;15280170;19;20056;-49
2023/03/09 18:51:17;;;;;;;4.18;1.60;;;;;;;7.35;100.00;96737.22;15296895;19;20094;-50
2023/03/09 18:56:42;;;;;;;3.20;1.48;;;;;;;7.37;100.00;96737.06;15295090;19;20531;-53
2023/03/09 19:02:07;;;;;;;3.15;1.48;;;;;;;7.41;100.00;96722.28;15295672;19;20189;-54
2023/03/09 19:07:34;;;;;;;3.90;1.50;;;;;;;7.44;100.00;96721.09;15296249;19;20066;-54
2023/03/09 19:12:59;;;;;;;3.85;1.30;;;;;;;7.44;100.00;96705.03;15297178;19;20006;-49
2023/03/09 19:18:23;;;;;;;4.03;1.27;;;;;;;7.43;100.00;96674.69;15297672;19;20014;-50
2023/03/09 19:23:56;;;;;;;3.70;1.42;;;;;;;7.42;100.00;96664.19;15297782;19;20024;-48
2023/03/09 19:29:21;;;;;;;4.13;1.50;;;;;;;7.42;100.00;96651.59;15130076;19;20020;-51
2023/03/09 19:34:46;;;;;;;4.60;1.70;;;;;;;7.40;100.00;96641.09;15264478;19;20025;-49
2023/03/09 19:40:15;;;;;;;4.18;1.48;;;;;;;7.41;100.00;96636.53;15289564;19;20036;-52
2023/03/09 19:45:40;;;;;;;4.85;1.60;;;;;;;7.39;100.00;96628.69;15294667;19;20066;-48
2023/03/09 19:51:12;;;;;;;4.22;1.58;;;;;;;7.36;100.00;96628.25;15289780;19;20370;-49
2023/03/09 19:56:41;;;;;;;4.80;1.48;;;;;;;7.32;100.00;96611.72;15272102;19;20011;-49
2023/03/09 20:02:05;;;;;;;5.70;1.67;;;;;;;7.22;100.00;96600.47;15282637;19;20045;-49
2023/03/09 20:07:30;;;;;;;4.70;1.50;;;;;;;7.25;100.00;96602.75;15294203;19;20078;-52
2023/03/09 20:12:58;;;;;;;5.72;1.70;;;;;;;7.21;100.00;96593.44;15288983;19;20019;-48
2023/03/09 20:18:23;;;;;;;4.60;1.60;;;;;;;7.16;100.00;96580.59;15288004;19;20121;-49
2023/03/09 20:23:48;;;;;;;5.72;1.85;;;;;;;7.18;100.00;96572.38;15292657;19;20035;-49
2023/03/09 20:29:16;;;;;;;3.65;1.80;;;;;;;7.14;100.00;96579.09;15288598;19;20456;-48
2023/03/09 20:34:40;;;;;;;7.50;2.00;;;;;;;7.07;100.00;96574.50;15285431;19;20045;-49
2023/03/09 20:40:05;;;;;;;6.28;2.08;;;;;;;7.06;100.00;96575.53;15288571;19;20031;-49
2023/03/09 20:45:32;;;;;;;7.00;1.77;;;;;;;7.08;100.00;96584.22;15285255;19;20482;-52
2023/03/09 20:50:57;;;;;;;8.52;2.25;;;;;;;7.09;100.00;96585.03;15284282;19;20014;-49
2023/03/09 20:56:23;;;;;;;6.88;2.35;;;;;;;7.08;100.00;96581.53;15288491;19;20022;-50
2023/03/09 21:01:50;;;;;;;6.22;1.90;;;;;;;7.07;100.00;96570.97;15278009;19;20018;-48
2023/03/09 21:07:15;;;;;;;6.35;2.20;;;;;;;7.06;100.00;96566.63;15274413;19;20081;-56
2023/03/09 21:12:46;;;;;;;6.70;2.00;;;;;;;7.00;100.00;96556.69;15273817;19;20006;-49
2023/03/09 21:18:14;;;;;;;7.03;2.00;;;;;;;6.97;100.00;96544.50;15287837;19;20025;-52
2023/03/09 21:23:39;;;;;;;7.50;2.00;;;;;;;7.08;100.00;96535.16;15287282;19;20014;-51
2023/03/09 21:29:10;;;;;;;7.65;1.80;;;;;;;7.17;100.00;96527.88;15285772;19;20376;-49
2023/03/09 21:34:37;;;;;;;5.07;1.80;;;;;;;7.24;100.00;96499.31;15287758;19;20091;-52
2023/03/09 21:40:02;;;;;;;8.60;2.00;;;;;;;7.32;100.00;96467.09;15281762;19;20014;-49
2023/03/09 21:45:28;;;;;;;7.70;1.80;;;;;;;7.36;100.00;96457.63;15284714;19;20069;-48
2023/03/09 21:50:55;;;;;;;8.02;1.90;;;;;;;7.37;100.00;96432.50;15285897;19;20016;-51
2023/03/09 21:56:21;;;;;;;5.40;1.90;;;;;;;7.30;100.00;96415.53;15285943;19;20090;-49
2023/03/09 22:01:45;;;;;;;6.60;1.90;;;;;;;7.26;100.00;96414.25;15284818;19;20014;-49
2023/03/09 22:07:13;;;;;;;8.45;2.20;;;;;;;7.23;100.00;96409.31;15286316;19;20025;-52
2023/03/09 22:12:40;;;;;;;7.72;1.88;;;;;;;7.15;100.00;96396.00;15277918;19;20010;-48
2023/03/09 22:18:05;;;;;;;6.65;1.80;;;;;;;7.07;100.00;96384.41;15285603;19;20089;-49
2023/03/09 22:23:33;;;;;;;8.98;1.77;;;;;;;7.00;100.00;96383.50;15283201;19;20038;-47
2023/03/09 22:28:58;;;;;;;8.20;2.03;;;;;;;6.93;100.00;96377.25;15284862;19;20050;-49
2023/03/09 22:34:22;;;;;;;8.55;1.98;;;;;;;6.86;100.00;96360.28;15285368;19;20015;-51
2023/03/09 22:39:49;;;;;;;9.40;2.28;;;;;;;6.75;100.00;96349.06;15284274;19;20013;-47
2023/03/09 22:45:16;;;;;;;7.38;2.03;;;;;;;6.71;100.00;96330.88;15279002;19;20455;-46
2023/03/09 22:50:41;;;;;;;7.88;2.05;;;;;;;6.72;100.00;96327.19;15281118;19;20025;-49
2023/03/09 22:56:10;;;;;;;9.07;2.10;;;;;;;6.82;100.00;96332.25;15280052;19;20691;-51
2023/03/09 23:01:37;;;;;;;9.25;1.90;;;;;;;6.95;100.00;96310.97;15280801;19;20010;-51
2023/03/09 23:07:01;;;;;;;7.05;1.80;;;;;;;7.05;100.00;96291.94;15281644;19;20016;-49
2023/03/09 23:12:28;;;;;;;6.82;1.90;;;;;;;7.22;100.00;96279.09;15278960;19;20010;-47
2023/03/09 23:17:54;;;;;;;9.38;2.05;;;;;;;7.31;100.00;96269.91;15278239;19;20018;-52
2023/03/09 23:23:20;;;;;;;8.75;2.00;;;;;;;7.33;100.00;96253.63;15282672;19;20019;-47
2023/03/09 23:28:47;;;;;;;6.15;1.75;;;;;;;7.39;100.00;96252.88;15280364;19;20019;-49
2023/03/09 23:34:18;;;;;;;9.05;1.98;;;;;;;7.43;100.00;96239.91;15284568;19;20010;-49
2023/03/09 23:39:43;;;;;;;7.57;1.87;;;;;;;7.51;100.00;96226.34;15294371;19;20017;-50
2023/03/09 23:45:10;;;;;;;8.13;1.73;;;;;;;7.54;100.00;96215.25;15294272;19;20078;-52
2023/03/09 23:50:35;;;;;;;7.38;2.00;;;;;;;7.58;100.00;96207.63;15287859;19;20078;-49
2023/03/09 23:55:59;;;;;;;7.38;1.98;;;;;;;7.59;100.00;96196.72;15293464;19;20421;-49
